Station Historical Data
Daily Summary for September 15, 2019 Units:  English    Metric   Both
« Previous Day
Next Day »
Daily Weekly Monthly Yearly Custom
  High: Low: Average:
Temperature: 79.7 °F 62.3 °F 70.5 °F
Dew Point: 64.7 °F 59 °F 62.5 °F
Humidity: 96% 51% 78%
Wind Speed: 11.5mph 0mph 0.7mph
Wind Gust: 12mph - -
Wind- - WNW
Pressure: 30.11 in 30.07 in -
Precipitation: 0.01 in    
Historical Graphs
 
 
Tabular Data for September 15, 2019
Time Temperature Dew Point Pressure Wind Wind Speed Wind Gust Humidity Rainfall Rate (Hourly) solar Conditions
15:15 78.9 °F 61.4 °F 30.10 in Calm     55% 0 in WeatherDisplay:10.37 W/m2 CLR
15:20 79.4 °F 61.8 °F 30.10 in West 1.2 mph 0.1 mph 55% 0 in WeatherDisplay:10.37 W/m2 CLR
15:25 79.7 °F 61.1 °F 30.10 in WNW 3.5 mph 0.3 mph 53% 0 in WeatherDisplay:10.37 W/m2 CLR
15:30 79.3 °F 60.1 °F 30.10 in NNW 1.2 mph   52% 0 in WeatherDisplay:10.37 W/m2 CLR
15:35 79.1 °F 61.5 °F 30.11 in Calm   12 mph 55% 0 in WeatherDisplay:10.37 W/m2 CLR
15:40 78.7 °F 60.7 °F 30.10 in Calm     54% 0 in WeatherDisplay:10.37 W/m2 CLR
15:45 78.7 °F 62.2 °F 30.10 in NW 1.2 mph 0.2 mph 57% 0 in WeatherDisplay:10.37 W/m2 CLR
15:50 78.9 °F 61.9 °F 30.10 in NNW 4.6 mph 2.2 mph 56% 0 in WeatherDisplay:10.37 W/m2 CLR
15:55 78.7 °F 59 °F 30.10 in NW 11.5 mph 7.2 mph 51% 0 in WeatherDisplay:10.37 W/m2 CLR
16:00 78.1 °F 60.6 °F 30.10 in North 5 mph 0.7 mph 55% 0 in WeatherDisplay:10.37 W/m2 CLR
16:05 78.1 °F 60.6 °F 30.10 in North 6 mph 5.1 mph 55% 0 in WeatherDisplay:10.37 W/m2 CLR
16:10 78.2 °F 60.7 °F 30.10 in North 4.6 mph 1.8 mph 55% 0 in WeatherDisplay:10.37 W/m2 CLR
16:15 78.1 °F 62.1 °F 30.10 in Calm     58% 0 in WeatherDisplay:10.37 W/m2 CLR
16:20 78.2 °F 61.2 °F 30.10 in Calm     56% 0 in WeatherDisplay:10.37 W/m2 CLR
16:25 78.2 °F 60.7 °F 30.09 in North 4.6 mph 1.3 mph 55% 0 in WeatherDisplay:10.37 W/m2 CLR
16:30 78 °F 62 °F 30.10 in North 1.2 mph 0.5 mph 58% 0 in WeatherDisplay:10.37 W/m2 CLR
16:35 78 °F 63 °F 30.10 in Calm     60% 0 in WeatherDisplay:10.37 W/m2 CLR
16:40 77.9 °F 62.4 °F 30.10 in North 3.5 mph 0.3 mph 59% 0 in WeatherDisplay:10.37 W/m2 CLR
16:45 77.8 °F 62.8 °F 30.09 in Calm     60% 0 in WeatherDisplay:10.37 W/m2 CLR
16:50 77.4 °F 61.9 °F 30.09 in NNW 5.8 mph 2.6 mph 59% 0 in WeatherDisplay:10.37 W/m2 CLR
16:55 77.2 °F 63.2 °F 30.09 in Calm     62% 0 in WeatherDisplay:10.37 W/m2 CLR
17:00 77.1 °F 63.1 °F 30.09 in Calm     62% 0 in WeatherDisplay:10.37 W/m2 CLR
17:05 77 °F 62.5 °F 30.09 in Calm     61% 0 in WeatherDisplay:10.37 W/m2 CLR
17:10 76.9 °F 62 °F 30.09 in NNW 1.2 mph 0.1 mph 60% 0 in WeatherDisplay:10.37 W/m2 CLR
17:15 76.6 °F 61.2 °F 30.09 in NW 2.3 mph 0.1 mph 59% 0 in WeatherDisplay:10.37 W/m2 CLR
17:20 76.5 °F 61.6 °F 30.09 in Calm     60% 0 in WeatherDisplay:10.37 W/m2 CLR
17:25 76.6 °F 61.2 °F 30.09 in North 2.3 mph 0.4 mph 59% 0 in WeatherDisplay:10.37 W/m2 CLR
17:30 76.7 °F 62.7 °F 30.09 in Calm     62% 0 in WeatherDisplay:10.37 W/m2 CLR
17:35 76.6 °F 62.6 °F 30.09 in NNW 3.5 mph 0.6 mph 62% 0 in WeatherDisplay:10.37 W/m2 CLR
17:40 76.5 °F 62.5 °F 30.09 in Calm     62% 0 in WeatherDisplay:10.37 W/m2 CLR
17:45 76.4 °F 62 °F 30.08 in North 6 mph 2.8 mph 61% 0 in WeatherDisplay:10.37 W/m2 CLR
17:50 76.2 °F 62.7 °F 30.09 in North 4 mph 0.6 mph 63% 0 in WeatherDisplay:10.37 W/m2 CLR
17:55 76.1 °F 62.6 °F 30.09 in Calm     63% 0 in WeatherDisplay:10.37 W/m2 CLR
18:00 76 °F 62 °F 30.09 in Calm     62% 0 in WeatherDisplay:10.37 W/m2 CLR
18:05 75.9 °F 62.8 °F 30.09 in Calm     64% 0 in WeatherDisplay:10.37 W/m2 CLR
18:10 75.8 °F 64.5 °F 30.09 in Calm     68% 0 in WeatherDisplay:10.37 W/m2 CLR
18:15 75.6 °F 64.7 °F 30.09 in Calm     69% 0 in WeatherDisplay:10.37 W/m2 CLR
18:20 75 °F 64.5 °F 30.09 in Calm     70% 0 in WeatherDisplay:10.37 W/m2 CLR
18:25 74.4 °F 64.4 °F 30.09 in Calm     71% 0 in WeatherDisplay:10.37 W/m2 CLR
18:30 73.7 °F 64.5 °F 30.09 in Calm     73% 0 in WeatherDisplay:10.37 W/m2 CLR
18:35 73.2 °F 64.4 °F 30.09 in Calm     74% 0 in WeatherDisplay:10.37 W/m2 CLR
18:40 72.9 °F 64.5 °F 30.09 in Calm     75% 0 in WeatherDisplay:10.37 W/m2 CLR
18:45 72.4 °F 64.4 °F 30.09 in Calm     76% 0 in WeatherDisplay:10.37 W/m2 CLR
18:50 71.9 °F 64.7 °F 30.09 in Calm     78% 0 in WeatherDisplay:10.37 W/m2 CLR
18:55 71.6 °F 64.4 °F 30.09 in Calm     78% 0 in WeatherDisplay:10.37 W/m2 CLR
19:00 71.2 °F 64 °F 30.09 in Calm     78% 0 in WeatherDisplay:10.37 W/m2 CLR
19:05 70.8 °F 63.6 °F 30.09 in Calm     78% 0 in WeatherDisplay:10.37 W/m2 CLR
19:10 70.5 °F 63.7 °F 30.09 in Calm     79% 0 in WeatherDisplay:10.37 W/m2 CLR
19:15 70.3 °F 64.2 °F 30.09 in Calm     81% 0 in WeatherDisplay:10.37 W/m2 CLR
19:20 70 °F 63.9 °F 30.09 in Calm     81% 0 in WeatherDisplay:10.37 W/m2 CLR
19:25 69.7 °F 63.6 °F 30.09 in Calm     81% 0 in WeatherDisplay:10.37 W/m2 CLR
19:30 69.5 °F 63.4 °F 30.09 in Calm     81% 0 in WeatherDisplay:10.37 W/m2 CLR
19:35 69.2 °F 63.5 °F 30.09 in Calm     82% 0 in WeatherDisplay:10.37 W/m2 CLR
19:40 69.1 °F 63.7 °F 30.09 in Calm     83% 0 in WeatherDisplay:10.37 W/m2 CLR
19:45 68.9 °F 63.9 °F 30.09 in Calm     84% 0 in WeatherDisplay:10.37 W/m2 CLR
19:50 68.8 °F 63.8 °F 30.09 in Calm     84% 0 in WeatherDisplay:10.37 W/m2 CLR
19:55 68.6 °F 63.6 °F 30.09 in Calm     84% 0 in WeatherDisplay:10.37 W/m2 CLR
20:00 68.5 °F 64.1 °F 30.09 in Calm     86% 0 in WeatherDisplay:10.37 W/m2 CLR
20:05 68.3 °F 63.9 °F 30.09 in Calm     86% 0 in WeatherDisplay:10.37 W/m2 CLR
20:10 68.2 °F 64.2 °F 30.09 in Calm     87% 0 in WeatherDisplay:10.37 W/m2 CLR
20:15 68.1 °F 64.1 °F 30.08 in Calm     87% 0 in WeatherDisplay:10.37 W/m2 CLR
20:20 68 °F 64.3 °F 30.09 in Calm     88% 0 in WeatherDisplay:10.37 W/m2 CLR
20:25 67.9 °F 64.2 °F 30.09 in Calm     88% 0 in WeatherDisplay:10.37 W/m2 CLR
20:30 67.7 °F 63.7 °F 30.09 in Calm     87% 0 in WeatherDisplay:10.37 W/m2 CLR
20:35 67.6 °F 63.9 °F 30.09 in Calm     88% 0 in WeatherDisplay:10.37 W/m2 CLR
20:40 67.5 °F 64.1 °F 30.09 in Calm     89% 0 in WeatherDisplay:10.37 W/m2 CLR
20:45 67.4 °F 64 °F 30.08 in Calm     89% 0 in WeatherDisplay:10.37 W/m2 CLR
20:50 67.2 °F 63.5 °F 30.09 in Calm     88% 0 in WeatherDisplay:10.37 W/m2 CLR
20:55 67.1 °F 63.7 °F 30.08 in Calm     89% 0 in WeatherDisplay:10.37 W/m2 CLR
21:00 66.8 °F 63.5 °F 30.08 in Calm     89% 0 in WeatherDisplay:10.37 W/m2 CLR
21:05 66.6 °F 63.3 °F 30.08 in Calm     89% 0 in WeatherDisplay:10.37 W/m2 CLR
21:10 66.4 °F 63.1 °F 30.08 in Calm     89% 0 in WeatherDisplay:10.37 W/m2 CLR
21:15 66 °F 63 °F 30.08 in Calm     90% 0 in WeatherDisplay:10.37 W/m2 CLR
21:20 65.7 °F 62.7 °F 30.08 in Calm     90% 0 in WeatherDisplay:10.37 W/m2 CLR
21:25 65.4 °F 62.4 °F 30.08 in Calm     90% 0 in WeatherDisplay:10.37 W/m2 CLR
21:30 65.2 °F 62.2 °F 30.08 in Calm     90% 0 in WeatherDisplay:10.37 W/m2 CLR
21:35 65 °F 62 °F 30.08 in Calm     90% 0 in WeatherDisplay:10.37 W/m2 CLR
21:40 64.8 °F 62.1 °F 30.08 in Calm     91% 0 in WeatherDisplay:10.37 W/m2 CLR
21:45 64.6 °F 61.9 °F 30.08 in Calm     91% 0 in WeatherDisplay:10.37 W/m2 CLR
21:50 64.4 °F 61.7 °F 30.08 in Calm     91% 0 in WeatherDisplay:10.37 W/m2 CLR
21:55 64.2 °F 61.8 °F 30.08 in Calm     92% 0 in WeatherDisplay:10.37 W/m2 CLR
22:00 64 °F 61.3 °F 30.09 in Calm     91% 0 in WeatherDisplay:10.37 W/m2 CLR
22:05 63.8 °F 61.4 °F 30.09 in Calm     92% 0 in WeatherDisplay:10.37 W/m2 CLR
22:10 63.6 °F 61.2 °F 30.08 in Calm     92% 0 in WeatherDisplay:10.37 W/m2 CLR
22:15 63.4 °F 61 °F 30.08 in Calm     92% 0 in WeatherDisplay:10.37 W/m2 CLR
22:20 63.2 °F 61.1 °F 30.08 in Calm     93% 0 in WeatherDisplay:10.37 W/m2 CLR
22:25 63.1 °F 61 °F 30.08 in Calm     93% 0 in WeatherDisplay:10.37 W/m2 CLR
22:30 62.9 °F 60.8 °F 30.08 in Calm     93% 0 in WeatherDisplay:10.37 W/m2 CLR
22:35 62.8 °F 61 °F 30.08 in Calm     94% 0 in WeatherDisplay:10.37 W/m2 CLR
22:40 62.7 °F 60.9 °F 30.08 in Calm     94% 0 in WeatherDisplay:10.37 W/m2 CLR
22:45 62.6 °F 60.8 °F 30.08 in Calm     94% 0 in WeatherDisplay:10.37 W/m2 CLR
22:50 62.5 °F 60.7 °F 30.08 in Calm     94% 0 in WeatherDisplay:10.37 W/m2 CLR
22:55 62.4 °F 60.9 °F 30.08 in Calm     95% 0 in WeatherDisplay:10.37 W/m2 CLR
23:00 62.3 °F 60.8 °F 30.08 in Calm     95% 0 in WeatherDisplay:10.37 W/m2 CLR
23:05 62.3 °F 60.8 °F 30.08 in Calm     95% 0 in WeatherDisplay:10.37 W/m2 CLR
23:10 62.4 °F 60.9 °F 30.08 in Calm     95% 0 in WeatherDisplay:10.37 W/m2 CLR
23:15 62.5 °F 61.3 °F 30.08 in Calm     96% 0 in WeatherDisplay:10.37 W/m2 CLR
23:20 62.6 °F 61.4 °F 30.08 in Calm     96% 0 in WeatherDisplay:10.37 W/m2 CLR
23:25 62.6 °F 61.4 °F 30.08 in Calm     96% 0 in WeatherDisplay:10.37 W/m2 CLR
23:30 62.7 °F 61.5 °F 30.08 in Calm     96% 0 in WeatherDisplay:10.37 W/m2 CLR
23:35 62.7 °F 61.5 °F 30.08 in Calm     96% 0 in WeatherDisplay:10.37 W/m2 CLR
23:40 62.7 °F 61.5 °F 30.08 in Calm     96% 0 in WeatherDisplay:10.37 W/m2 CLR
23:45 62.8 °F 61.6 °F 30.08 in Calm     96% 0 in WeatherDisplay:10.37 W/m2 CLR
23:50 62.7 °F 61.5 °F 30.07 in Calm     96% 0 in WeatherDisplay:10.37 W/m2 CLR
23:55 62.8 °F 61.6 °F 30.07 in Calm     96% 0 in WeatherDisplay:10.37 W/m2 CLR
Lake Wynonah, (Auburn) PA USA